Time;durP1;ratioP1;P1;durP2;ratioP2;P2;SDS_P1;SDS_P2;PMS_P1;PMS_P2;Temp;Humidity;BMP_temperature;BMP_pressure;BME280_temperature;BME280_humidity;BME280_pressure;Samples;Min_cycle;Max_cycle;Signal;HPM_P1;HPM_P2
2022/07/02 00:00:35;;;;;;;11.80;5.60;;;;;;;19.39;89.68;100931.63;2065151;28;20050;-63
2022/07/02 00:01:38;;;;;;;13.85;5.43;;;;;;;19.31;89.69;100924.28;2081191;28;20037;-62
2022/07/02 00:02:43;;;;;;;10.35;5.43;;;;;;;19.21;90.08;100922.72;2088113;28;20072;-62
2022/07/02 00:03:57;;;;;;;12.45;5.25;;;;;;;19.24;90.46;100915.03;2065801;28;20042;-63
2022/07/02 00:05:08;;;;;;;10.73;5.68;;;;;;;19.15;90.69;100924.03;2073232;28;20042;-62
2022/07/02 00:06:12;;;;;;;11.95;5.57;;;;;;;19.15;90.95;100929.47;2073329;28;20490;-62
2022/07/02 00:07:18;;;;;;;14.05;6.18;;;;;;;19.14;91.19;100921.63;2073848;28;20061;-62
2022/07/02 00:08:26;;;;;;;9.23;5.80;;;;;;;19.05;91.11;100923.59;2064490;28;20387;-61
2022/07/02 00:09:30;;;;;;;10.13;5.80;;;;;;;19.03;91.31;100921.19;2065490;28;20061;-63
2022/07/02 00:10:33;;;;;;;9.68;5.57;;;;;;;18.98;91.53;100918.66;2072905;28;20060;-61
2022/07/02 00:11:39;;;;;;;11.20;5.30;;;;;;;19.01;92.01;100915.28;2072566;28;20041;-60
2022/07/02 00:12:47;;;;;;;12.00;5.40;;;;;;;18.99;92.19;100909.34;2072465;28;20057;-60
2022/07/02 00:13:50;;;;;;;8.85;5.60;;;;;;;19.04;92.29;100903.72;2073112;28;20041;-61
2022/07/02 00:14:54;;;;;;;10.82;6.43;;;;;;;19.08;92.23;100904.66;2072590;28;20042;-62
2022/07/02 00:15:56;;;;;;;12.57;5.50;;;;;;;19.08;92.16;100907.38;2064839;28;20038;-60
2022/07/02 00:16:58;;;;;;;11.63;6.25;;;;;;;19.10;92.33;100909.78;2072987;28;20096;-61
2022/07/02 00:18:06;;;;;;;12.00;5.45;;;;;;;19.13;91.90;100915.38;2072428;28;20058;-60
2022/07/02 00:19:07;;;;;;;13.52;5.70;;;;;;;19.16;91.89;100909.25;2064419;28;20035;-60
2022/07/02 00:20:13;;;;;;;10.60;5.88;;;;;;;19.15;91.74;100910.41;2064971;28;20054;-61
2022/07/02 00:21:16;;;;;;;16.98;6.03;;;;;;;19.11;91.54;100912.19;2056974;28;20050;-62
2022/07/02 00:22:21;;;;;;;12.15;5.70;;;;;;;19.13;91.44;100909.91;2065077;28;20678;-62
2022/07/02 00:23:25;;;;;;;11.35;5.80;;;;;;;19.13;91.69;100920.81;2070816;28;20050;-63
2022/07/02 00:24:28;;;;;;;8.63;5.30;;;;;;;19.16;91.60;100919.38;2072530;28;20366;-63
2022/07/02 00:25:37;;;;;;;11.27;5.70;;;;;;;19.18;91.46;100931.53;2064466;28;20034;-61
2022/07/02 00:26:52;;;;;;;9.43;5.47;;;;;;;19.20;91.25;100934.75;2064983;28;20041;-61
2022/07/02 00:27:57;;;;;;;11.48;5.78;;;;;;;19.26;91.24;100935.34;2073190;28;20033;-61
2022/07/02 00:29:28;;;;;;;9.85;5.55;;;;;;;19.31;90.97;100937.09;2072334;28;20437;-60
2022/07/02 00:30:36;;;;;;;10.57;5.55;;;;;;;19.30;90.76;100930.88;2067717;28;20030;-61
2022/07/02 00:31:39;;;;;;;11.52;6.10;;;;;;;19.30;90.64;100930.88;2065342;28;20534;-61
2022/07/02 00:32:47;;;;;;;10.32;5.78;;;;;;;19.32;90.51;100941.44;2072843;28;20049;-61
2022/07/02 00:33:51;;;;;;;9.27;5.70;;;;;;;19.30;90.24;100936.31;2072394;28;20402;-61
2022/07/02 00:34:59;;;;;;;9.55;5.47;;;;;;;19.30;90.17;100947.22;2072962;28;20057;-61
2022/07/02 00:36:02;;;;;;;10.68;5.60;;;;;;;19.31;90.30;100945.28;2073257;28;20053;-60
2022/07/02 00:37:08;;;;;;;12.63;5.50;;;;;;;19.33;90.19;100943.03;2072310;28;20032;-60
2022/07/02 00:38:10;;;;;;;14.10;6.93;;;;;;;19.33;90.22;100945.78;2065321;28;20058;-60
2022/07/02 00:39:15;;;;;;;9.70;5.45;;;;;;;19.33;90.12;100940.31;2071796;28;20056;-60
2022/07/02 00:40:19;;;;;;;12.57;5.63;;;;;;;19.31;90.19;100942.56;2072025;28;20046;-60
2022/07/02 00:41:24;;;;;;;10.88;5.70;;;;;;;19.27;90.13;100936.97;2065502;28;20042;-60
2022/07/02 00:42:27;;;;;;;9.13;5.72;;;;;;;19.21;89.89;100941.81;2072154;28;20045;-61
2022/07/02 00:43:35;;;;;;;11.25;5.95;;;;;;;19.24;90.16;100947.72;2073126;28;20045;-60
2022/07/02 00:44:36;;;;;;;11.88;6.05;;;;;;;19.26;90.46;100940.81;2073285;28;20478;-61
2022/07/02 00:45:41;;;;;;;8.80;5.57;;;;;;;19.28;90.41;100943.22;2072064;28;20037;-61
2022/07/02 00:46:47;;;;;;;11.55;5.38;;;;;;;19.29;90.28;100947.53;2072182;28;20399;-60
2022/07/02 00:47:55;;;;;;;11.52;5.72;;;;;;;19.25;90.02;100943.88;2072979;28;20046;-62
2022/07/02 00:48:59;;;;;;;11.63;5.55;;;;;;;19.25;90.03;100943.88;2072143;28;20042;-62
2022/07/02 00:50:06;;;;;;;10.18;5.70;;;;;;;19.26;89.94;100950.91;2064772;28;20054;-62
2022/07/02 00:51:08;;;;;;;8.00;5.65;;;;;;;19.29;89.88;100956.50;2064455;28;20038;-62
2022/07/02 00:52:10;;;;;;;8.07;5.18;;;;;;;19.29;89.97;100950.25;2064969;28;20411;-63
2022/07/02 00:53:14;;;;;;;7.55;5.45;;;;;;;19.31;89.93;100956.19;2070809;28;20650;-63
2022/07/02 00:54:15;;;;;;;12.30;5.05;;;;;;;19.35;89.99;100951.69;2048779;28;20567;-64
2022/07/02 00:55:19;;;;;;;8.63;5.43;;;;;;;19.38;89.83;100951.03;2040506;28;20055;-63
2022/07/02 00:56:21;;;;;;;12.25;5.50;;;;;;;19.42;89.64;100941.06;2056858;28;20396;-63
2022/07/02 00:57:24;;;;;;;9.57;5.65;;;;;;;19.43;89.58;100940.72;2056415;28;20047;-63
2022/07/02 00:58:30;;;;;;;8.65;5.90;;;;;;;19.43;89.21;100929.03;2052861;28;20039;-63
2022/07/02 00:59:33;;;;;;;10.63;5.78;;;;;;;19.42;89.03;100933.69;2064918;28;20118;-63
2022/07/02 01:00:35;;;;;;;11.70;5.40;;;;;;;19.43;88.90;100939.94;2073260;28;20026;-61
2022/07/02 01:01:43;;;;;;;8.82;5.88;;;;;;;19.42;88.84;100938.34;2068338;28;20061;-62
2022/07/02 01:02:48;;;;;;;10.88;6.05;;;;;;;19.42;88.76;100952.78;2072367;28;20702;-62
2022/07/02 01:03:52;;;;;;;14.02;5.50;;;;;;;19.41;88.77;100947.63;2079767;28;20057;-62
2022/07/02 01:04:57;;;;;;;14.95;6.18;;;;;;;19.40;88.79;100952.28;2073157;28;20033;-62
2022/07/02 01:05:59;;;;;;;10.32;5.82;;;;;;;19.36;88.72;100958.75;2063818;28;20050;-62
2022/07/02 01:07:04;;;;;;;11.95;6.20;;;;;;;19.24;88.69;100953.19;2040781;29;20677;-62
2022/07/02 01:10:53;;;;;;;11.23;6.05;;;;;;;19.15;89.40;100945.03;2072294;28;20045;-62
2022/07/02 01:11:59;;;;;;;13.68;6.10;;;;;;;19.18;89.61;100937.00;2064732;28;20057;-63
2022/07/02 01:13:03;;;;;;;11.88;6.05;;;;;;;19.23;89.78;100946.94;2064132;28;20054;-62
2022/07/02 01:14:06;;;;;;;9.80;5.65;;;;;;;19.28;89.76;100945.94;2063240;28;20073;-62
2022/07/02 01:15:08;;;;;;;11.27;5.95;;;;;;;19.31;89.81;100940.63;2056816;28;20055;-63
2022/07/02 01:16:11;;;;;;;12.05;6.03;;;;;;;19.33;89.75;100943.84;2063845;28;20047;-62
2022/07/02 01:17:14;;;;;;;10.25;5.78;;;;;;;19.36;89.61;100940.47;2069980;28;20053;-62
2022/07/02 01:18:18;;;;;;;12.10;6.10;;;;;;;19.36;89.45;100939.66;2055976;28;20426;-63
2022/07/02 01:19:22;;;;;;;10.52;6.18;;;;;;;19.37;89.15;100938.53;2057674;28;20043;-62
2022/07/02 01:20:25;;;;;;;12.98;6.35;;;;;;;19.36;89.06;100937.72;2071949;28;20049;-62
2022/07/02 01:21:27;;;;;;;14.77;6.70;;;;;;;19.37;88.94;100943.97;2072758;28;20046;-62
2022/07/02 01:22:44;;;;;;;13.40;6.35;;;;;;;19.35;88.77;100938.03;2072047;28;20046;-62
2022/07/02 01:23:47;;;;;;;12.73;6.47;;;;;;;19.35;88.95;100944.28;2072895;28;20556;-62
2022/07/02 01:25:11;;;;;;;14.32;6.88;;;;;;;19.38;88.83;100949.09;2072581;28;20608;-62
2022/07/02 01:26:13;;;;;;;14.80;8.52;;;;;;;19.41;88.90;100953.88;2071196;28;20096;-62
2022/07/02 01:27:22;;;;;;;17.88;9.88;;;;;;;19.41;88.65;100953.09;2065367;28;20049;-62
2022/07/02 01:28:25;;;;;;;18.02;11.88;;;;;;;19.43;88.67;100948.13;2064456;28;20046;-62
2022/07/02 01:29:26;;;;;;;15.63;10.80;;;;;;;19.44;88.48;100945.03;2064482;28;20045;-63
2022/07/02 01:30:32;;;;;;;18.10;11.07;;;;;;;19.47;88.49;100945.53;2063720;28;20053;-62
2022/07/02 01:31:35;;;;;;;17.35;10.32;;;;;;;19.50;88.44;100944.88;2072003;28;20065;-62
2022/07/02 01:32:38;;;;;;;17.77;10.95;;;;;;;19.52;88.50;100945.34;2072055;28;20062;-62
2022/07/02 01:33:40;;;;;;;18.92;12.27;;;;;;;19.52;88.08;100939.91;2072004;28;20057;-63
2022/07/02 01:34:44;;;;;;;20.83;12.48;;;;;;;19.54;87.99;100949.31;2072253;28;20037;-62
2022/07/02 01:35:46;;;;;;;20.23;11.35;;;;;;;19.56;88.00;100958.00;2071973;28;20749;-61
2022/07/02 01:36:48;;;;;;;17.05;10.85;;;;;;;19.55;87.66;100950.94;2072093;28;20050;-62
2022/07/02 01:37:53;;;;;;;14.45;9.98;;;;;;;19.51;87.57;100947.25;2072186;28;20485;-62
2022/07/02 01:38:55;;;;;;;17.48;10.05;;;;;;;19.51;87.46;100955.44;2063961;28;20063;-62
2022/07/02 01:39:58;;;;;;;14.27;8.57;;;;;;;19.51;87.31;100951.91;2071356;28;20517;-62
2022/07/02 01:42:21;;;;;;;16.33;8.88;;;;;;;19.29;87.76;100951.06;2063942;28;20037;-62
2022/07/02 01:43:25;;;;;;;12.40;8.65;;;;;;;19.29;87.90;100950.25;2071726;28;20050;-63
2022/07/02 01:44:37;;;;;;;15.75;8.75;;;;;;;19.30;88.22;100951.88;2073373;28;20045;-62
2022/07/02 01:45:40;;;;;;;12.55;7.32;;;;;;;19.32;88.17;100960.50;2071653;28;20502;-62
2022/07/02 01:46:47;;;;;;;15.30;7.43;;;;;;;19.35;88.21;100966.09;2072158;28;20426;-62
2022/07/02 01:47:49;;;;;;;16.60;7.00;;;;;;;19.36;88.38;100962.28;2072970;28;20041;-62
2022/07/02 01:48:51;;;;;;;16.17;7.50;;;;;;;19.39;88.09;100966.28;2064460;28;20045;-62
2022/07/02 01:49:54;;;;;;;13.13;7.63;;;;;;;19.40;88.22;100956.97;2059612;28;20065;-61
2022/07/02 01:51:03;;;;;;;11.07;6.68;;;;;;;19.44;88.08;100968.78;2044541;28;20047;-61
2022/07/02 01:52:05;;;;;;;11.77;7.38;;;;;;;19.45;87.95;100964.94;2056168;28;20050;-63
2022/07/02 01:53:08;;;;;;;11.95;6.95;;;;;;;19.48;87.84;100963.47;2061604;28;20046;-61
2022/07/02 01:54:13;;;;;;;11.23;6.95;;;;;;;19.45;87.83;100964.94;2063893;28;20046;-62
2022/07/02 01:55:18;;;;;;;14.20;7.93;;;;;;;19.48;87.62;100961.56;2064973;28;20050;-63
2022/07/02 01:56:22;;;;;;;12.73;7.40;;;;;;;19.49;87.64;100963.16;2063847;28;20506;-62
2022/07/02 01:57:24;;;;;;;17.05;8.07;;;;;;;19.47;87.61;100962.69;2059364;28;20049;-62
2022/07/02 01:58:28;;;;;;;14.27;8.60;;;;;;;19.44;87.31;100969.59;2064245;28;20501;-62
2022/07/02 01:59:34;;;;;;;17.05;9.13;;;;;;;19.43;87.43;100972.66;2072022;28;20041;-62
2022/07/02 02:00:37;;;;;;;13.32;8.35;;;;;;;19.45;87.58;100970.38;2071881;28;20042;-63
2022/07/02 02:01:42;;;;;;;16.13;8.63;;;;;;;19.47;87.60;100970.88;2068313;28;20042;-65
2022/07/02 02:02:47;;;;;;;16.88;9.13;;;;;;;19.49;87.70;100960.44;2056099;28;20585;-62
2022/07/02 02:03:48;;;;;;;21.55;9.80;;;;;;;19.50;87.62;100970.22;2058327;28;20394;-61
2022/07/02 02:04:51;;;;;;;20.48;10.82;;;;;;;19.51;87.70;100971.81;2064816;28;20533;-62
2022/07/02 02:05:56;;;;;;;22.20;12.48;;;;;;;19.51;87.55;100966.34;2064648;28;20038;-61
2022/07/02 02:07:03;;;;;;;18.48;11.80;;;;;;;19.54;87.62;100975.81;2071373;28;20050;-61
2022/07/02 02:08:06;;;;;;;16.77;11.48;;;;;;;19.55;87.48;100975.50;2071805;28;20045;-61
2022/07/02 02:09:15;;;;;;;19.42;11.95;;;;;;;19.57;87.50;100975.16;2056055;28;20382;-63
2022/07/02 02:10:18;;;;;;;21.70;12.68;;;;;;;19.57;87.49;100978.66;2061067;28;20031;-62
2022/07/02 02:11:21;;;;;;;20.80;12.23;;;;;;;19.60;87.50;100983.47;2073166;28;20053;-62
2022/07/02 02:12:23;;;;;;;21.90;12.32;;;;;;;19.62;87.38;100983.16;2072448;28;20502;-62
2022/07/02 02:13:28;;;;;;;20.92;12.30;;;;;;;19.63;87.39;100982.00;2072226;28;20410;-61
2022/07/02 02:14:30;;;;;;;24.88;12.43;;;;;;;19.61;87.33;100974.19;2064089;28;20049;-62
2022/07/02 02:15:33;;;;;;;19.10;12.48;;;;;;;19.61;87.14;100979.63;2063579;28;20552;-63
2022/07/02 02:16:35;;;;;;;18.20;11.63;;;;;;;19.62;87.33;100974.97;2071602;28;20030;-62
2022/07/02 02:17:39;;;;;;;20.75;11.57;;;;;;;19.64;87.13;100983.63;2064488;28;20038;-62
2022/07/02 02:18:43;;;;;;;20.90;12.02;;;;;;;19.63;87.11;100982.00;2071367;28;20054;-63
2022/07/02 02:19:45;;;;;;;23.08;12.25;;;;;;;19.61;86.98;100985.09;2071445;28;20574;-62
2022/07/02 02:20:49;;;;;;;18.38;11.18;;;;;;;19.59;87.04;100994.72;2072695;28;20037;-62
2022/07/02 02:21:52;;;;;;;17.90;11.57;;;;;;;19.57;87.05;100999.69;2079308;28;20053;-61
2022/07/02 02:22:54;;;;;;;21.13;11.45;;;;;;;19.57;86.89;101005.16;2063335;28;20054;-62
2022/07/02 02:23:57;;;;;;;17.08;11.18;;;;;;;19.60;87.18;101012.69;2055867;28;20046;-62
2022/07/02 02:24:59;;;;;;;19.88;11.00;;;;;;;19.59;87.37;101009.16;2062339;28;20026;-62
2022/07/02 02:26:02;;;;;;;17.08;10.77;;;;;;;19.62;87.09;101011.22;2073206;28;20057;-63
2022/07/02 02:27:04;;;;;;;20.05;11.48;;;;;;;19.63;87.13;101012.03;2072157;28;20053;-62
2022/07/02 02:28:06;;;;;;;22.08;11.30;;;;;;;19.63;86.97;101006.56;2065600;28;20054;-61
2022/07/02 02:29:14;;;;;;;20.08;12.25;;;;;;;19.63;86.98;101004.63;2049498;28;20051;-63
2022/07/02 02:30:23;;;;;;;24.10;13.13;;;;;;;19.64;86.81;101011.75;2066288;28;20058;-64
2022/07/02 02:31:28;;;;;;;23.13;11.70;;;;;;;19.66;86.77;101017.66;2069957;28;20434;-63
2022/07/02 02:32:33;;;;;;;24.15;13.55;;;;;;;19.67;86.79;101013.81;2065331;28;20058;-62
2022/07/02 02:33:36;;;;;;;20.35;12.88;;;;;;;19.68;86.58;101023.59;2065788;28;20050;-63
2022/07/02 02:34:41;;;;;;;18.63;12.35;;;;;;;19.71;86.72;101026.78;2064898;28;20042;-62
2022/07/02 02:35:48;;;;;;;20.23;12.98;;;;;;;19.72;86.42;101026.44;2049671;28;20053;-63
2022/07/02 02:36:51;;;;;;;21.88;13.85;;;;;;;19.73;86.52;101027.25;2058675;28;20523;-62
2022/07/02 02:38:02;;;;;;;21.58;14.10;;;;;;;19.74;86.46;101026.94;2073177;28;20038;-62
2022/07/02 02:39:03;;;;;;;21.17;13.05;;;;;;;19.73;86.07;101025.31;2073775;28;20041;-63
2022/07/02 02:40:05;;;;;;;24.48;13.82;;;;;;;19.75;86.30;101027.72;2065133;28;20046;-65
2022/07/02 02:41:09;;;;;;;21.40;14.18;;;;;;;19.74;85.93;101037.06;2065359;28;20398;-63
2022/07/02 02:42:16;;;;;;;28.60;15.13;;;;;;;19.74;86.05;101037.84;2058325;28;20043;-62
2022/07/02 02:43:21;;;;;;;34.70;15.70;;;;;;;19.73;86.05;101035.44;2049704;28;20046;-63
2022/07/02 02:44:26;;;;;;;23.30;15.30;;;;;;;19.67;85.85;101035.63;2065912;28;20050;-63
2022/07/02 02:45:27;;;;;;;29.85;17.00;;;;;;;19.65;85.69;101040.59;2073670;28;20037;-63
2022/07/02 02:46:30;;;;;;;26.20;15.45;;;;;;;19.62;85.97;101046.69;2073222;28;20064;-62
2022/07/02 02:47:34;;;;;;;25.13;15.10;;;;;;;19.62;86.04;101046.69;2073408;28;20420;-63
2022/07/02 02:48:38;;;;;;;23.02;14.32;;;;;;;19.59;86.24;101046.56;2065509;28;20046;-62
2022/07/02 02:49:39;;;;;;;21.35;13.45;;;;;;;19.60;86.37;101059.84;2065026;28;20434;-62
2022/07/02 02:50:42;;;;;;;21.17;13.00;;;;;;;19.62;86.44;101052.16;2059081;28;20065;-62
2022/07/02 02:51:44;;;;;;;23.25;11.98;;;;;;;19.65;86.64;101056.19;2065633;28;20109;-63
2022/07/02 02:52:46;;;;;;;22.73;12.82;;;;;;;19.66;86.69;101049.59;2049060;28;20417;-62
2022/07/02 02:53:53;;;;;;;19.10;12.40;;;;;;;19.70;86.81;101052.47;2059037;28;20045;-61
2022/07/02 02:54:55;;;;;;;19.25;12.30;;;;;;;19.71;86.72;101048.63;2066269;28;20054;-62
2022/07/02 02:55:59;;;;;;;18.73;11.82;;;;;;;19.71;86.73;101046.69;2057201;28;20034;-62
2022/07/02 02:57:01;;;;;;;21.27;12.38;;;;;;;19.74;86.71;101047.97;2056989;28;20066;-61
2022/07/02 02:58:04;;;;;;;21.30;11.30;;;;;;;19.75;86.56;101044.91;2057757;28;20050;-62
2022/07/02 02:59:06;;;;;;;18.98;11.80;;;;;;;19.76;86.73;101045.69;2057135;28;20054;-61
2022/07/02 03:00:10;;;;;;;19.10;12.20;;;;;;;19.75;86.40;101038.66;2066055;28;20053;-62
2022/07/02 03:01:14;;;;;;;18.60;12.23;;;;;;;19.68;86.26;101042.69;2066370;28;20414;-62
2022/07/02 03:02:18;;;;;;;17.63;11.30;;;;;;;19.65;86.45;101048.78;2068022;28;20057;-62
2022/07/02 03:03:20;;;;;;;20.23;12.38;;;;;;;19.65;86.67;101045.28;2056639;28;20530;-61
2022/07/02 03:04:25;;;;;;;19.73;12.32;;;;;;;19.61;86.73;101045.09;2051230;28;20047;-62
2022/07/02 03:05:30;;;;;;;20.98;12.10;;;;;;;19.55;86.77;101043.69;2061047;28;20046;-62
2022/07/02 03:06:31;;;;;;;20.75;11.93;;;;;;;19.55;86.99;101046.41;2065618;28;20026;-62
2022/07/02 03:07:35;;;;;;;18.35;9.57;;;;;;;19.58;87.18;101048.47;2072966;28;20046;-62
2022/07/02 03:08:41;;;;;;;19.52;10.68;;;;;;;19.58;87.14;101039.50;2057024;28;20427;-62
2022/07/02 03:09:43;;;;;;;18.27;10.38;;;;;;;19.49;87.29;101042.25;2059443;28;20046;-62
2022/07/02 03:10:51;;;;;;;19.45;10.30;;;;;;;19.45;87.62;101041.28;2063822;28;20038;-62
2022/07/02 03:11:53;;;;;;;14.70;9.48;;;;;;;19.37;87.80;101042.94;2065739;28;20054;-62
2022/07/02 03:13:00;;;;;;;13.50;8.95;;;;;;;19.36;88.39;101040.53;2057482;28;20039;-62
2022/07/02 03:14:02;;;;;;;15.27;8.57;;;;;;;19.36;88.78;101046.00;2057102;28;20073;-62
2022/07/02 03:15:05;;;;;;;16.48;7.78;;;;;;;19.42;88.85;101047.44;2067118;28;20057;-62
2022/07/02 03:16:07;;;;;;;12.73;7.80;;;;;;;19.42;88.87;101041.97;2065256;28;20529;-63
2022/07/02 03:17:09;;;;;;;16.10;6.93;;;;;;;19.34;88.93;101040.06;2071134;28;20081;-62
2022/07/02 03:18:12;;;;;;;11.18;6.80;;;;;;;19.35;88.99;101042.44;2073504;28;20510;-62
2022/07/02 03:19:14;;;;;;;16.08;7.30;;;;;;;19.32;89.22;101045.03;2073170;28;20058;-62
2022/07/02 03:20:16;;;;;;;17.13;6.93;;;;;;;19.32;89.49;101036.84;2070233;28;20046;-62
2022/07/02 03:21:19;;;;;;;12.65;6.20;;;;;;;19.31;89.36;101038.78;2067484;28;20505;-62
2022/07/02 03:22:20;;;;;;;17.25;6.50;;;;;;;19.31;89.68;101035.25;2073393;28;20410;-62
2022/07/02 03:23:26;;;;;;;10.52;5.30;;;;;;;19.26;89.48;101030.75;2063565;28;20437;-62
2022/07/02 03:24:30;;;;;;;9.98;5.07;;;;;;;19.26;89.80;101025.31;2071223;28;20497;-62
2022/07/02 03:25:31;;;;;;;8.35;3.97;;;;;;;19.26;89.71;101016.34;2072562;28;20045;-62
2022/07/02 03:26:34;;;;;;;9.00;4.05;;;;;;;19.26;89.57;101022.59;2065154;28;20031;-62
2022/07/02 03:27:42;;;;;;;6.78;3.60;;;;;;;19.27;89.62;101020.69;2063476;28;20694;-62
2022/07/02 03:28:44;;;;;;;7.07;3.88;;;;;;;19.26;89.67;101027.25;2049893;28;20047;-63
2022/07/02 03:29:46;;;;;;;7.55;3.20;;;;;;;19.28;89.69;101031.25;2051276;28;20515;-63
2022/07/02 03:30:48;;;;;;;5.15;3.55;;;;;;;19.23;89.67;101034.16;2058578;28;20067;-62
2022/07/02 03:31:53;;;;;;;5.50;3.35;;;;;;;19.22;89.74;101032.56;2056865;28;20053;-62
2022/07/02 03:32:59;;;;;;;6.95;3.22;;;;;;;19.25;89.71;101034.63;2050086;28;20051;-62
2022/07/02 03:34:01;;;;;;;5.45;3.10;;;;;;;19.28;89.74;101030.47;2058256;28;20054;-62
2022/07/02 03:35:06;;;;;;;5.38;2.75;;;;;;;19.29;89.65;101021.94;2072637;28;20048;-62
2022/07/02 03:36:11;;;;;;;4.28;2.70;;;;;;;19.28;89.59;101036.69;2072098;28;20058;-62
2022/07/02 03:37:12;;;;;;;5.45;2.65;;;;;;;19.24;89.06;101026.78;2065482;28;20597;-62
2022/07/02 03:38:15;;;;;;;3.33;2.03;;;;;;;19.21;89.05;101037.22;2072751;28;20095;-62
2022/07/02 03:39:20;;;;;;;3.17;2.30;;;;;;;19.13;88.91;101040.75;2065008;28;20126;-62
2022/07/02 03:40:23;;;;;;;3.50;2.20;;;;;;;19.12;88.84;101041.09;2065243;28;20057;-62
2022/07/02 03:41:26;;;;;;;4.78;2.80;;;;;;;19.12;88.87;101044.59;2072696;28;20048;-62
2022/07/02 03:42:30;;;;;;;2.50;1.80;;;;;;;19.16;88.89;101048.28;2072071;28;20108;-62
2022/07/02 03:43:33;;;;;;;4.25;1.67;;;;;;;19.16;88.81;101045.53;2065609;28;20061;-62
2022/07/02 03:44:35;;;;;;;5.20;1.77;;;;;;;19.13;88.62;101051.66;2064406;28;20049;-62
2022/07/02 03:45:38;;;;;;;4.32;1.38;;;;;;;19.08;88.43;101051.84;2064934;28;20054;-63
2022/07/02 03:46:43;;;;;;;5.03;1.30;;;;;;;19.09;88.31;101044.47;2065118;28;20042;-62
2022/07/02 03:47:48;;;;;;;4.47;1.30;;;;;;;19.02;88.41;101047.69;2065604;28;20065;-62
2022/07/02 03:48:50;;;;;;;4.50;1.20;;;;;;;19.03;88.41;101053.91;2065769;28;20046;-62
2022/07/02 03:49:51;;;;;;;2.47;1.00;;;;;;;19.03;88.24;101054.72;2064741;28;20063;-63
2022/07/02 03:50:56;;;;;;;4.18;0.90;;;;;;;19.02;88.23;101047.69;2071971;28;20053;-62
2022/07/02 03:51:58;;;;;;;2.65;1.08;;;;;;;19.06;88.52;101054.06;2072865;28;20037;-62
2022/07/02 03:53:00;;;;;;;1.20;1.00;;;;;;;19.11;88.32;101048.47;2071923;28;20042;-62
2022/07/02 03:54:03;;;;;;;2.17;1.15;;;;;;;18.96;88.17;101051.69;2072782;28;20046;-63
2022/07/02 03:55:10;;;;;;;2.92;0.80;;;;;;;18.91;88.50;101055.38;2065070;28;20086;-63
2022/07/02 03:56:13;;;;;;;0.90;0.75;;;;;;;18.85;88.68;101036.78;2066217;28;20053;-62
2022/07/02 03:57:18;;;;;;;2.38;0.75;;;;;;;18.79;88.37;101044.34;2064845;28;20426;-62
2022/07/02 03:58:23;;;;;;;2.10;1.02;;;;;;;18.77;88.85;101032.16;2066059;28;20053;-62
2022/07/02 03:59:25;;;;;;;2.70;0.82;;;;;;;18.73;88.86;101037.47;2056774;28;20046;-62
2022/07/02 04:00:27;;;;;;;0.73;0.73;;;;;;;18.74;88.85;101033.59;2064278;28;20046;-61
2022/07/02 04:01:30;;;;;;;1.85;0.70;;;;;;;18.65;88.72;101030.84;2074729;28;20040;-62
2022/07/02 04:02:32;;;;;;;1.33;0.95;;;;;;;18.70;88.71;101038.88;2072217;28;20038;-63
2022/07/02 04:03:34;;;;;;;2.08;0.60;;;;;;;18.63;88.78;101040.47;2069659;28;20049;-63
2022/07/02 04:04:37;;;;;;;1.67;0.60;;;;;;;18.58;88.86;101046.88;2073630;28;20457;-63
2022/07/02 04:05:43;;;;;;;1.77;0.52;;;;;;;18.51;88.25;101038.41;2069371;28;20053;-63
2022/07/02 04:06:46;;;;;;;0.55;0.50;;;;;;;18.48;88.19;101048.00;2064998;28;20041;-63
2022/07/02 04:07:49;;;;;;;0.50;0.43;;;;;;;18.47;88.09;101049.13;2064778;28;20038;-62
2022/07/02 04:08:54;;;;;;;2.38;1.00;;;;;;;18.46;88.38;101052.97;2056913;28;20047;-61
2022/07/02 04:09:57;;;;;;;1.15;0.70;;;;;;;18.46;88.48;101050.22;2056525;28;20042;-61
2022/07/02 04:10:59;;;;;;;2.08;1.02;;;;;;;18.43;88.40;101060.97;2071984;28;20050;-62
2022/07/02 04:12:03;;;;;;;0.55;0.50;;;;;;;18.42;88.41;101070.25;2064100;28;20038;-61
2022/07/02 04:13:08;;;;;;;1.65;0.55;;;;;;;18.42;87.90;101075.72;2064296;28;20050;-61
2022/07/02 04:14:10;;;;;;;1.30;0.90;;;;;;;18.36;87.91;101075.06;2063772;28;20046;-60
2022/07/02 04:15:12;;;;;;;1.83;0.40;;;;;;;18.36;88.20;101075.06;2055706;28;20768;-61
2022/07/02 04:16:16;;;;;;;2.00;0.63;;;;;;;18.39;87.91;101082.59;2064179;28;20039;-61
2022/07/02 04:17:20;;;;;;;0.73;0.50;;;;;;;18.37;87.59;101090.25;2063074;28;20046;-61
2022/07/02 04:18:24;;;;;;;0.40;0.40;;;;;;;18.35;87.45;101081.63;2053861;28;20496;-61
2022/07/02 04:19:26;;;;;;;1.65;0.40;;;;;;;18.28;87.09;101084.81;2063473;28;20041;-61
2022/07/02 04:20:32;;;;;;;0.52;0.30;;;;;;;18.28;86.92;101089.44;2072683;28;20033;-62
2022/07/02 04:21:37;;;;;;;0.57;0.28;;;;;;;18.22;86.54;101087.97;2056628;28;20539;-61
2022/07/02 04:22:41;;;;;;;2.35;0.47;;;;;;;18.19;86.69;101094.88;2057425;28;20039;-62
2022/07/02 04:23:43;;;;;;;0.40;0.40;;;;;;;18.21;86.61;101083.66;2071703;28;20537;-62
2022/07/02 04:24:48;;;;;;;0.73;0.40;;;;;;;18.19;86.25;101080.47;2071478;28;20061;-62
2022/07/02 04:25:50;;;;;;;0.40;0.30;;;;;;;18.21;86.27;101086.41;2065045;28;20495;-61
2022/07/02 04:26:53;;;;;;;2.20;0.50;;;;;;;18.07;86.31;101081.09;2064424;28;20046;-61
2022/07/02 04:27:57;;;;;;;0.80;0.20;;;;;;;17.98;86.51;101082.97;2056275;28;20054;-61
2022/07/02 04:29:01;;;;;;;4.25;0.55;;;;;;;17.91;86.68;101082.66;2057160;28;20064;-61
2022/07/02 04:30:03;;;;;;;0.38;0.38;;;;;;;17.93;86.88;101086.63;2059391;28;20043;-62
2022/07/02 04:31:08;;;;;;;1.10;0.50;;;;;;;17.93;86.68;101086.63;2056549;28;20734;-62
2022/07/02 04:32:11;;;;;;;0.30;0.30;;;;;;;18.00;86.90;101086.16;2071962;28;20045;-63
2022/07/02 04:33:17;;;;;;;0.35;0.35;;;;;;;17.99;86.63;101090.81;2072480;28;20030;-62
2022/07/02 04:34:22;;;;;;;0.80;0.30;;;;;;;17.96;86.53;101085.19;2071511;28;20049;-62
2022/07/02 04:35:24;;;;;;;0.82;0.77;;;;;;;17.98;86.51;101085.69;2070130;28;20034;-62
2022/07/02 04:36:26;;;;;;;1.75;0.20;;;;;;;17.88;86.10;101069.66;2071644;28;20033;-62
2022/07/02 04:37:31;;;;;;;0.85;0.57;;;;;;;17.67;85.52;101083.78;2048016;29;20050;-61
2022/07/02 04:38:33;;;;;;;2.20;0.30;;;;;;;17.74;85.83;101078.69;2049164;28;20062;-61
2022/07/02 04:39:35;;;;;;;0.63;0.30;;;;;;;17.81;85.88;101084.53;2073849;28;20033;-62
2022/07/02 04:40:37;;;;;;;0.22;0.22;;;;;;;17.81;85.63;101078.25;2056517;28;20483;-62
2022/07/02 04:41:41;;;;;;;0.30;0.28;;;;;;;17.72;85.15;101086.38;2057715;28;20043;-61
2022/07/02 04:42:43;;;;;;;0.73;0.30;;;;;;;17.69;85.48;101092.44;2069024;28;20084;-62
2022/07/02 04:43:46;;;;;;;0.25;0.20;;;;;;;17.66;85.50;101095.00;2062902;28;20391;-62
2022/07/02 04:44:53;;;;;;;0.88;0.40;;;;;;;17.64;85.59;101089.84;2067179;28;20046;-62
2022/07/02 04:45:55;;;;;;;0.68;0.30;;;;;;;17.45;86.14;101109.09;2064393;28;20050;-61
2022/07/02 04:46:58;;;;;;;0.82;0.30;;;;;;;17.46;86.46;101099.03;2059022;28;20061;-61
2022/07/02 04:48:00;;;;;;;0.52;0.28;;;;;;;17.39;86.58;101110.34;2055335;28;20039;-62
2022/07/02 04:49:07;;;;;;;2.05;0.30;;;;;;;17.45;86.84;101113.75;2055566;28;22037;-62
2022/07/02 04:50:09;;;;;;;3.33;0.68;;;;;;;17.50;86.91;101113.63;2064059;28;20411;-62
2022/07/02 04:51:14;;;;;;;1.13;0.30;;;;;;;17.50;86.45;101117.13;2062792;28;20054;-62
2022/07/02 04:52:17;;;;;;;2.15;0.60;;;;;;;17.45;86.88;101119.19;2063659;28;20053;-61
2022/07/02 04:53:18;;;;;;;1.83;0.50;;;;;;;17.41;87.30;101123.66;2071143;28;20026;-62
2022/07/02 04:54:23;;;;;;;2.95;1.17;;;;;;;17.30;86.75;101120.34;2058684;28;20054;-61
2022/07/02 04:55:25;;;;;;;1.67;0.40;;;;;;;17.27;87.45;101132.66;2057602;28;20067;-62
2022/07/02 04:56:29;;;;;;;0.30;0.30;;;;;;;17.24;87.32;101127.81;2063208;28;20045;-62
2022/07/02 04:57:32;;;;;;;1.92;0.90;;;;;;;17.18;87.24;101129.09;2069390;28;20034;-61
2022/07/02 04:58:35;;;;;;;1.67;0.50;;;;;;;17.21;87.61;101131.16;2067643;28;20042;-61
2022/07/02 04:59:37;;;;;;;2.00;0.45;;;;;;;17.26;87.54;101132.97;2066262;28;20038;-61